Time;durP1;ratioP1;P1;durP2;ratioP2;P2;SDS_P1;SDS_P2;PMS_P1;PMS_P2;Temp;Humidity;BMP_temperature;BMP_pressure;BME280_temperature;BME280_humidity;BME280_pressure;Samples;Min_cycle;Max_cycle;Signal;HPM_P1;HPM_P2
2021/06/25 00:04:46;;;;;;;24.67;21.77;;;;;;;20.63;72.01;99714.04;254233;1104;139694;-79
2021/06/25 00:09:49;;;;;;;24.67;19.83;;;;;;;20.62;72.40;99714.34;256235;1104;115507;-78
2021/06/25 00:14:52;;;;;;;22.15;19.75;;;;;;;20.55;72.12;99697.69;254299;1104;114702;-77
2021/06/25 00:19:56;;;;;;;33.65;18.18;;;;;;;20.37;72.24;99677.71;254116;1104;116259;-77
2021/06/25 00:24:59;;;;;;;21.13;19.08;;;;;;;20.22;72.14;99669.88;254374;1103;115874;-78
2021/06/25 00:30:04;;;;;;;21.03;18.98;;;;;;;20.11;72.27;99666.58;254093;1098;116064;-77
2021/06/25 00:35:07;;;;;;;24.70;18.63;;;;;;;20.04;72.52;99666.16;255000;1099;115702;-75
2021/06/25 00:40:12;;;;;;;21.88;18.53;;;;;;;19.94;72.73;99664.43;254467;1104;115936;-77
2021/06/25 00:45:20;;;;;;;25.00;18.63;;;;;;;19.81;72.27;99652.50;255544;1103;115903;-78
2021/06/25 00:50:25;;;;;;;22.75;17.63;;;;;;;19.74;72.68;99670.20;254407;1104;115703;-77
2021/06/25 00:55:42;;;;;;;24.73;18.73;;;;;;;19.69;72.76;99698.13;254328;1104;115626;-78
2021/06/25 01:00:46;;;;;;;23.70;19.68;;;;;;;19.65;72.80;99715.23;257251;1104;114889;-78
2021/06/25 01:05:50;;;;;;;20.28;18.25;;;;;;;19.69;73.12;99724.38;255199;1104;116230;-77
2021/06/25 01:10:55;;;;;;;20.78;18.08;;;;;;;19.69;73.00;99746.81;254107;1104;117300;-77
2021/06/25 01:15:59;;;;;;;20.08;17.18;;;;;;;19.66;72.89;99765.52;254009;1099;115895;-77
2021/06/25 01:21:03;;;;;;;18.25;16.38;;;;;;;19.65;73.02;99772.83;254254;1104;118487;-77
2021/06/25 01:26:07;;;;;;;20.60;18.43;;;;;;;19.62;72.86;99780.72;255141;1104;116584;-77
2021/06/25 01:31:10;;;;;;;22.03;17.35;;;;;;;19.54;73.15;99781.41;254095;1104;116299;-77
2021/06/25 01:36:14;;;;;;;24.48;18.45;;;;;;;19.45;73.11;99781.22;254817;1104;115851;-77
2021/06/25 01:41:16;;;;;;;21.05;18.30;;;;;;;19.43;73.37;99795.03;254300;1104;116316;-77
2021/06/25 01:46:20;;;;;;;22.73;18.45;;;;;;;19.41;73.49;99789.11;254095;1104;115592;-77
2021/06/25 01:51:24;;;;;;;20.18;16.90;;;;;;;19.40;73.75;99802.91;254114;1104;116241;-77
2021/06/25 01:56:27;;;;;;;26.30;19.03;;;;;;;19.43;73.64;99799.63;254360;1104;115936;-78
2021/06/25 02:01:30;;;;;;;19.78;17.83;;;;;;;19.43;73.89;99775.30;254413;1104;115857;-77
2021/06/25 02:06:34;;;;;;;20.17;16.83;;;;;;;19.41;73.41;99766.67;254106;1104;115864;-73
2021/06/25 02:11:37;;;;;;;19.93;17.83;;;;;;;19.37;73.67;99776.46;254302;1097;115683;-77
2021/06/25 02:16:39;;;;;;;19.83;17.73;;;;;;;19.37;73.93;99784.57;254144;1103;116437;-77
2021/06/25 02:21:42;;;;;;;26.08;16.90;;;;;;;19.36;73.80;99793.77;254592;1104;117179;-74
2021/06/25 02:26:45;;;;;;;23.43;18.53;;;;;;;19.41;73.97;99799.11;254273;1104;117168;-77
2021/06/25 02:31:48;;;;;;;20.23;16.53;;;;;;;19.37;73.92;99803.49;254120;1104;117550;-77
2021/06/25 02:36:52;;;;;;;20.60;18.50;;;;;;;19.35;73.96;99794.87;254296;1100;116526;-77
2021/06/25 02:41:55;;;;;;;23.05;16.75;;;;;;;19.34;74.01;99785.95;255300;1098;116339;-77
2021/06/25 02:46:58;;;;;;;22.30;17.33;;;;;;;19.33;73.79;99786.24;254115;1104;117226;-77
2021/06/25 02:52:01;;;;;;;19.30;15.43;;;;;;;19.27;73.74;99769.28;254407;1098;117021;-77
2021/06/25 02:57:06;;;;;;;16.50;14.70;;;;;;;19.26;73.65;99770.38;254304;1104;117375;-77
2021/06/25 03:02:10;;;;;;;17.08;15.25;;;;;;;19.26;73.55;99758.80;254501;1098;116982;-77
2021/06/25 03:07:14;;;;;;;19.48;16.03;;;;;;;19.23;74.09;99738.56;254342;1104;116561;-78
2021/06/25 03:12:17;;;;;;;17.63;15.75;;;;;;;19.18;73.86;99711.60;254334;1104;116471;-77
2021/06/25 03:17:19;;;;;;;16.50;14.80;;;;;;;19.14;73.83;99687.06;255802;1104;116437;-77
2021/06/25 03:22:23;;;;;;;18.73;15.63;;;;;;;19.09;74.00;99652.00;257498;1104;115839;-78
2021/06/25 03:27:26;;;;;;;17.00;14.40;;;;;;;19.02;73.88;99629.95;256410;1096;117477;-77
2021/06/25 03:32:29;;;;;;;16.13;14.47;;;;;;;18.96;73.91;99619.50;255277;1104;116338;-77
2021/06/25 03:37:34;;;;;;;20.05;13.13;;;;;;;18.90;74.06;99621.50;254252;1104;117644;-77
2021/06/25 03:42:39;;;;;;;14.50;13.00;;;;;;;18.92;74.37;99672.53;255419;1104;117273;-77
2021/06/25 03:47:43;;;;;;;12.58;11.08;;;;;;;18.95;74.18;99723.27;255606;1104;116880;-77
2021/06/25 03:52:47;;;;;;;16.20;10.97;;;;;;;18.94;74.11;99735.98;254500;1097;117377;-77
2021/06/25 03:57:51;;;;;;;12.50;9.73;;;;;;;18.96;74.59;99724.85;254139;1104;116692;-77
2021/06/25 04:02:54;;;;;;;9.65;8.65;;;;;;;18.88;73.95;99720.92;254331;1104;115476;-77
2021/06/25 04:07:57;;;;;;;9.63;8.45;;;;;;;18.78;74.07;99748.05;254326;1104;116398;-76
2021/06/25 04:13:00;;;;;;;9.70;8.70;;;;;;;18.78;73.95;99759.65;254844;1104;117256;-77
2021/06/25 04:18:04;;;;;;;11.57;8.23;;;;;;;18.80;73.55;99745.86;254237;1104;115691;-77
2021/06/25 04:23:08;;;;;;;7.83;7.08;;;;;;;18.75;73.95;99764.81;254295;1104;116392;-77
2021/06/25 04:28:12;;;;;;;7.85;7.05;;;;;;;18.68;73.85;99777.85;254091;1104;120303;-77
2021/06/25 04:33:15;;;;;;;11.58;7.30;;;;;;;18.67;74.01;99803.24;254177;1104;116974;-74
2021/06/25 04:38:18;;;;;;;9.00;6.98;;;;;;;18.69;73.95;99799.17;255023;1104;116840;-77
2021/06/25 04:43:21;;;;;;;10.05;8.33;;;;;;;18.63;73.85;99769.83;254115;1096;116920;-77
2021/06/25 04:48:24;;;;;;;8.37;7.17;;;;;;;18.56;73.83;99788.23;254465;1104;115946;-75
2021/06/25 04:53:31;;;;;;;11.07;7.77;;;;;;;18.58;74.00;99800.36;254271;1099;115924;-76
2021/06/25 04:58:33;;;;;;;8.23;7.45;;;;;;;18.63;73.98;99794.94;254785;1104;115946;-72
2021/06/25 05:03:39;;;;;;;9.33;8.53;;;;;;;18.74;73.95;99801.82;254463;1100;115500;-74
2021/06/25 05:08:43;;;;;;;9.20;7.53;;;;;;;18.78;73.84;99802.05;254752;1104;114755;-71
2021/06/25 05:13:47;;;;;;;9.08;7.85;;;;;;;18.78;73.56;99808.27;255041;1104;115830;-71
2021/06/25 05:18:50;;;;;;;8.87;7.17;;;;;;;18.88;73.77;99817.34;257231;1104;115229;-71
2021/06/25 05:23:55;;;;;;;8.77;7.60;;;;;;;18.95;73.36;99818.63;257197;1104;114524;-72
2021/06/25 05:28:59;;;;;;;9.80;6.93;;;;;;;19.00;73.09;99821.23;255305;1098;117334;-71
2021/06/25 05:34:02;;;;;;;7.95;7.15;;;;;;;18.99;73.11;99818.83;254487;1104;117151;-74
2021/06/25 05:39:05;;;;;;;7.95;6.98;;;;;;;19.01;72.95;99825.55;254408;1104;116834;-72
2021/06/25 05:44:08;;;;;;;7.43;6.80;;;;;;;19.05;73.09;99823.88;254473;1099;115556;-72
2021/06/25 05:49:11;;;;;;;6.50;5.93;;;;;;;19.00;72.62;99832.05;254205;1104;115140;-73
2021/06/25 05:54:14;;;;;;;6.83;6.23;;;;;;;18.98;72.51;99836.93;254493;1104;114911;-73
2021/06/25 05:59:17;;;;;;;8.10;5.87;;;;;;;19.09;72.65;99834.92;254167;1104;115581;-73
2021/06/25 06:04:20;;;;;;;7.03;6.25;;;;;;;19.11;72.20;99838.95;254374;1104;114841;-73
2021/06/25 06:09:23;;;;;;;6.40;5.90;;;;;;;19.29;72.31;99823.05;254564;1104;115449;-73
2021/06/25 06:14:26;;;;;;;6.08;5.25;;;;;;;19.52;72.36;99813.34;254648;1104;114373;-73
2021/06/25 06:19:38;;;;;;;5.63;5.13;;;;;;;19.60;71.46;99813.47;254322;1104;118187;-71
2021/06/25 06:35:27;;;;;;;6.80;5.90;;;;;;;19.98;70.95;99818.86;254647;1104;116072;-72
2021/06/25 06:40:31;;;;;;;6.13;5.60;;;;;;;20.21;70.80;99834.17;254282;1104;115163;-72
2021/06/25 06:45:36;;;;;;;6.40;5.60;;;;;;;20.77;70.00;99844.08;254795;1104;114485;-72
2021/06/25 06:50:40;;;;;;;5.65;5.05;;;;;;;21.18;69.36;99852.20;254399;1104;115367;-73
2021/06/25 06:55:43;;;;;;;6.58;5.98;;;;;;;21.16;68.67;99848.99;254331;1104;115262;-73
2021/06/25 07:00:48;;;;;;;7.13;6.43;;;;;;;20.95;68.58;99842.38;254168;1104;115276;-73
2021/06/25 07:06:01;;;;;;;7.45;6.78;;;;;;;20.92;68.68;99834.84;254425;1104;115896;-72
2021/06/25 07:11:05;;;;;;;7.03;6.43;;;;;;;20.91;68.34;99835.95;254800;1104;115176;-74
2021/06/25 07:16:11;;;;;;;8.18;5.23;;;;;;;21.40;68.08;99857.73;255048;1104;115280;-75
2021/06/25 07:21:18;;;;;;;5.80;5.40;;;;;;;21.23;67.52;99868.41;255668;1104;115933;-75
2021/06/25 07:26:20;;;;;;;;;;;;;;;20.95;67.41;99856.73;254323;1104;116461;-75
2021/06/25 07:31:24;;;;;;;5.53;5.08;;;;;;;20.95;67.66;99866.77;256912;1104;103011;-76
2021/06/25 07:36:27;;;;;;;9.25;4.83;;;;;;;21.05;67.05;99867.39;256551;1104;115314;-75
2021/06/25 07:41:31;;;;;;;6.03;5.43;;;;;;;21.08;67.18;99869.50;254625;1104;115667;-75
2021/06/25 07:46:34;;;;;;;7.03;5.00;;;;;;;20.96;66.94;99858.34;257474;1103;114702;-75
2021/06/25 07:51:37;;;;;;;5.93;5.07;;;;;;;21.00;67.04;99870.19;254677;1104;115230;-74
2021/06/25 07:56:40;;;;;;;5.70;5.25;;;;;;;21.11;66.83;99858.02;255284;1099;114868;-74
2021/06/25 08:01:42;;;;;;;5.38;4.98;;;;;;;21.14;66.65;99853.91;254394;1104;114821;-74
2021/06/25 08:06:46;;;;;;;6.40;4.95;;;;;;;21.13;66.85;99853.11;254383;1099;115250;-76
2021/06/25 08:11:51;;;;;;;5.20;4.70;;;;;;;21.12;66.76;99861.54;255493;1104;115437;-75
2021/06/25 08:16:54;;;;;;;5.93;5.45;;;;;;;21.18;66.56;99854.92;255316;1104;115694;-75
2021/06/25 08:21:58;;;;;;;5.18;4.40;;;;;;;21.28;66.59;99857.47;254546;1104;114868;-75
2021/06/25 08:27:01;;;;;;;4.60;4.20;;;;;;;21.32;66.55;99868.52;256254;1104;116536;-74
2021/06/25 08:32:05;;;;;;;5.73;4.63;;;;;;;21.28;65.74;99865.59;254916;1104;114724;-75
2021/06/25 08:37:09;;;;;;;5.30;4.80;;;;;;;21.18;66.00;99868.47;254340;1100;114747;-75
2021/06/25 08:42:14;;;;;;;4.00;3.53;;;;;;;21.09;65.73;99864.88;254347;1104;115523;-75
2021/06/25 08:47:25;;;;;;;4.80;4.28;;;;;;;21.25;66.01;99866.20;254704;1103;115188;-78
2021/06/25 08:52:41;;;;;;;4.83;4.28;;;;;;;21.59;65.42;99868.47;254452;1104;115523;-76
2021/06/25 08:57:45;;;;;;;6.25;3.35;;;;;;;21.59;65.19;99881.23;254867;1104;114701;-76
2021/06/25 09:02:49;;;;;;;3.60;3.40;;;;;;;21.63;65.11;99879.52;254322;1104;115828;-77
2021/06/25 09:07:54;;;;;;;3.43;2.80;;;;;;;21.76;64.97;99876.77;254722;1104;115590;-78
2021/06/25 09:13:07;;;;;;;3.85;3.55;;;;;;;21.93;64.34;99867.19;254518;1104;114989;-76
2021/06/25 09:18:14;;;;;;;3.28;3.08;;;;;;;22.20;64.22;99869.83;255125;1104;114783;-76
2021/06/25 09:23:27;;;;;;;4.53;4.05;;;;;;;22.34;64.02;99862.40;254567;1104;115779;-72
2021/06/25 09:28:41;;;;;;;4.30;3.93;;;;;;;22.36;63.76;99856.66;254179;1104;116447;-74
2021/06/25 09:33:47;;;;;;;5.08;4.05;;;;;;;22.45;63.38;99852.09;254595;1104;115250;-77
2021/06/25 09:38:59;;;;;;;4.25;2.93;;;;;;;22.56;63.18;99858.88;256986;1103;115821;-76
2021/06/25 09:44:15;;;;;;;4.10;3.55;;;;;;;22.70;62.47;99854.14;256419;1103;114642;-77
2021/06/25 09:49:31;;;;;;;4.98;4.58;;;;;;;22.93;62.18;99857.63;254924;1098;114909;-77
2021/06/25 09:54:34;;;;;;;;;;;;;;;22.96;62.22;99867.88;257076;1103;115741;-77
2021/06/25 10:05:12;;;;;;;4.15;3.85;;;;;;;23.16;61.74;99871.98;255217;1104;115564;-78
2021/06/25 10:10:17;;;;;;;8.78;4.13;;;;;;;22.81;61.65;99873.74;254266;1096;115853;-78
2021/06/25 10:15:21;;;;;;;;;;;;;;;22.63;61.21;99869.28;254421;1104;115924;-75
2021/06/25 10:20:28;;;;;;;4.40;4.10;;;;;;;22.60;61.41;99857.15;255819;1103;103113;-79
2021/06/25 10:25:32;;;;;;;5.00;4.43;;;;;;;22.71;61.13;99865.81;255128;1104;115342;-78
2021/06/25 10:30:36;;;;;;;4.48;4.10;;;;;;;22.54;61.13;99863.02;254378;1104;115411;-77
2021/06/25 10:35:42;;;;;;;4.58;3.83;;;;;;;22.69;61.34;99846.30;254279;1104;115298;-76
2021/06/25 10:41:00;;;;;;;6.05;4.40;;;;;;;23.01;60.91;99854.16;254403;1104;114590;-75
2021/06/25 10:46:04;;;;;;;4.20;3.80;;;;;;;23.27;60.71;99859.67;254277;1104;115254;-76
2021/06/25 10:51:25;;;;;;;4.18;3.88;;;;;;;23.81;60.15;99833.88;254352;1104;115491;-78
2021/06/25 10:56:30;;;;;;;3.77;3.47;;;;;;;23.39;59.45;99848.99;254360;1104;114682;-77
2021/06/25 11:01:58;;;;;;;4.25;3.63;;;;;;;22.82;59.66;99868.00;254222;1104;115457;-78
2021/06/25 11:07:08;;;;;;;4.28;3.98;;;;;;;22.36;60.47;99892.77;254486;1104;114747;-79
2021/06/25 11:12:35;;;;;;;3.83;3.63;;;;;;;22.11;60.97;99896.09;255093;1099;114962;-73
2021/06/25 11:17:47;;;;;;;3.73;3.43;;;;;;;22.19;61.20;99898.09;254273;1104;115700;-75
2021/06/25 11:22:59;;;;;;;4.33;3.93;;;;;;;22.20;61.25;99902.41;254368;1104;114496;-75
2021/06/25 11:28:13;;;;;;;3.90;3.50;;;;;;;22.29;61.31;99903.28;254395;1098;115124;-75
2021/06/25 11:33:40;;;;;;;3.78;3.48;;;;;;;22.22;61.11;99897.47;255198;1104;114763;-76
2021/06/25 11:39:16;;;;;;;4.08;3.60;;;;;;;22.11;61.43;99886.04;254257;1104;115819;-75
2021/06/25 11:44:30;;;;;;;3.25;2.80;;;;;;;22.42;61.71;99879.88;255820;1103;115231;-77
2021/06/25 11:49:42;;;;;;;5.23;3.35;;;;;;;22.66;60.96;99895.84;255870;1104;115058;-76
2021/06/25 11:54:49;;;;;;;3.95;3.65;;;;;;;22.83;60.75;99890.55;257312;1104;115006;-74
2021/06/25 12:00:01;;;;;;;4.13;3.83;;;;;;;22.90;60.33;99899.06;256238;1103;114956;-72
2021/06/25 12:05:05;;;;;;;3.65;3.35;;;;;;;22.74;59.60;99892.38;254408;1104;115764;-76
2021/06/25 12:10:10;;;;;;;3.65;3.38;;;;;;;22.81;60.00;99882.70;256132;1104;114974;-77
2021/06/25 12:15:14;;;;;;;2.73;2.53;;;;;;;22.80;60.12;99896.59;254694;1104;114843;-78
2021/06/25 12:20:21;;;;;;;3.88;3.58;;;;;;;22.64;59.77;99895.34;254483;1099;115293;-78
2021/06/25 12:25:35;;;;;;;4.03;3.55;;;;;;;22.73;60.05;99886.14;255116;1104;174705;-76
2021/06/25 12:30:50;;;;;;;3.80;3.50;;;;;;;22.79;59.82;99892.28;254429;1100;115049;-74
2021/06/25 12:35:55;;;;;;;;;;;;;;;22.81;59.75;99896.29;254399;1101;115586;-71
2021/06/25 12:41:03;;;;;;;3.58;3.28;;;;;;;22.82;59.69;99913.40;255300;1104;103840;-72
2021/06/25 12:46:18;;;;;;;4.33;3.85;;;;;;;22.62;59.74;99916.61;255158;1105;116015;-71
2021/06/25 12:51:24;;;;;;;4.08;3.78;;;;;;;22.47;59.92;99920.50;254368;1104;116856;-71
2021/06/25 12:56:31;;;;;;;3.28;3.08;;;;;;;22.48;60.23;99917.47;254615;1104;116506;-72
2021/06/25 13:01:38;;;;;;;3.27;3.00;;;;;;;22.57;60.12;99914.02;254439;1104;115350;-73
2021/06/25 13:06:48;;;;;;;3.90;3.60;;;;;;;22.67;59.99;99913.74;254309;1098;116682;-71
2021/06/25 13:11:53;;;;;;;4.55;3.63;;;;;;;22.76;59.94;99901.83;254675;1104;114947;-77
2021/06/25 13:17:01;;;;;;;3.98;3.58;;;;;;;22.79;59.54;99889.56;254799;1104;115736;-75
2021/06/25 13:22:21;;;;;;;4.10;3.55;;;;;;;22.96;59.68;99895.06;254832;1104;115356;-74
2021/06/25 13:27:24;;;;;;;3.20;2.90;;;;;;;23.02;59.85;99895.73;254303;1104;116420;-73
2021/06/25 13:32:30;;;;;;;3.30;3.03;;;;;;;23.14;59.77;99893.23;255411;1104;115528;-73
2021/06/25 13:37:48;;;;;;;3.78;2.90;;;;;;;23.26;59.21;99895.34;254892;1098;116074;-72
2021/06/25 13:43:10;;;;;;;3.13;2.90;;;;;;;23.35;59.14;99902.42;255513;1104;115646;-75
2021/06/25 13:48:28;;;;;;;2.63;2.47;;;;;;;23.55;58.81;99900.25;256571;1099;115567;-74
2021/06/25 13:53:35;;;;;;;;;;;;;;;23.63;58.84;99889.40;257302;1104;115132;-74
2021/06/25 13:58:57;;;;;;;2.97;2.77;;;;;;;23.45;58.82;99891.27;257927;1103;101954;-75
2021/06/25 14:04:09;;;;;;;2.60;2.50;;;;;;;23.50;58.70;99887.59;256592;1104;116720;-75
2021/06/25 14:09:30;;;;;;;3.13;2.80;;;;;;;23.53;58.44;99884.28;254407;1104;114785;-78
2021/06/25 14:14:41;;;;;;;3.18;2.98;;;;;;;23.58;58.79;99891.46;254204;1099;115333;-76
2021/06/25 14:19:45;;;;;;;3.58;3.33;;;;;;;23.46;58.65;99911.91;254257;1104;116711;-72
2021/06/25 14:24:48;;;;;;;3.33;3.00;;;;;;;23.34;58.85;99921.78;254294;1100;115205;-71
2021/06/25 14:29:51;;;;;;;4.18;3.78;;;;;;;23.17;58.58;99904.30;254292;1104;115587;-71
2021/06/25 14:34:54;;;;;;;4.58;3.53;;;;;;;23.05;59.05;99897.83;254259;1104;114937;-71
2021/06/25 14:39:57;;;;;;;2.35;2.25;;;;;;;22.87;59.58;99901.59;254814;1104;115052;-71
2021/06/25 14:45:00;;;;;;;2.63;2.43;;;;;;;22.73;59.86;99894.29;254508;1104;115195;-71
2021/06/25 14:50:06;;;;;;;2.88;2.60;;;;;;;22.72;59.91;99887.25;255018;1104;114998;-71
2021/06/25 14:55:10;;;;;;;3.57;3.37;;;;;;;22.79;60.12;99878.69;254437;1104;114739;-71
2021/06/25 15:00:15;;;;;;;4.55;3.38;;;;;;;22.81;59.89;99879.18;254566;1104;116190;-71
2021/06/25 15:05:18;;;;;;;4.07;3.27;;;;;;;22.75;60.30;99878.48;254505;1104;114580;-75
2021/06/25 15:10:21;;;;;;;3.15;2.68;;;;;;;22.73;60.17;99872.55;254295;1100;114567;-74
2021/06/25 15:15:28;;;;;;;4.25;3.08;;;;;;;22.70;59.72;99881.32;254463;1103;114960;-71
2021/06/25 15:20:32;;;;;;;3.85;3.60;;;;;;;22.71;60.27;99884.84;254479;1104;115190;-70
2021/06/25 15:25:36;;;;;;;2.90;2.70;;;;;;;22.77;60.80;99887.13;255354;1103;114335;-70
2021/06/25 15:30:40;;;;;;;4.85;3.83;;;;;;;22.80;60.41;99872.14;254467;1103;115519;-70
2021/06/25 15:35:43;;;;;;;8.57;4.30;;;;;;;22.79;60.22;99873.25;254433;1104;115310;-70
2021/06/25 15:40:49;;;;;;;5.38;3.73;;;;;;;22.70;59.98;99875.08;254196;1103;115530;-71
2021/06/25 15:45:55;;;;;;;6.15;5.03;;;;;;;22.56;59.84;99874.38;254487;1104;115700;-73
2021/06/25 15:50:58;;;;;;;4.48;3.70;;;;;;;22.43;60.09;99865.18;254460;1104;118452;-77
2021/06/25 15:56:02;;;;;;;3.43;3.10;;;;;;;22.42;60.68;99875.24;254271;1104;118622;-75
2021/06/25 16:01:05;;;;;;;4.87;4.37;;;;;;;22.47;60.83;99877.03;256602;1104;115936;-77
2021/06/25 16:06:09;;;;;;;4.28;3.98;;;;;;;22.46;60.86;99868.08;257447;1103;115296;-77
2021/06/25 16:11:14;;;;;;;4.40;4.10;;;;;;;22.43;60.68;99876.84;255076;1104;115029;-77
2021/06/25 16:16:19;;;;;;;4.60;4.30;;;;;;;22.41;61.21;99870.92;255304;1104;194943;-78
2021/06/25 16:21:22;;;;;;;4.63;4.33;;;;;;;22.39;61.16;99866.91;254627;1104;115942;-71
2021/06/25 16:26:25;;;;;;;5.63;4.30;;;;;;;22.28;61.29;99852.80;254368;1100;118478;-73
2021/06/25 16:31:28;;;;;;;7.43;4.78;;;;;;;22.20;61.70;99855.45;254920;1104;116185;-73
2021/06/25 16:36:36;;;;;;;3.70;3.50;;;;;;;22.19;61.98;99854.64;254332;1099;115745;-74
2021/06/25 16:41:44;;;;;;;5.98;4.23;;;;;;;22.10;61.89;99846.42;254974;1104;115835;-72
2021/06/25 16:46:47;;;;;;;5.77;4.13;;;;;;;22.18;62.10;99853.84;254086;1104;116685;-71
2021/06/25 16:51:51;;;;;;;4.00;3.70;;;;;;;22.29;62.43;99848.17;255159;1104;117126;-73
2021/06/25 16:56:53;;;;;;;4.50;3.93;;;;;;;22.37;61.92;99840.05;254348;1104;115650;-76
2021/06/25 17:01:56;;;;;;;4.93;4.43;;;;;;;22.35;61.87;99844.99;254320;1104;116339;-72
2021/06/25 17:06:59;;;;;;;5.37;4.87;;;;;;;22.39;61.58;99842.47;254791;1100;115599;-72
2021/06/25 17:12:03;;;;;;;3.80;3.45;;;;;;;22.33;61.26;99841.78;254754;1104;116310;-72
2021/06/25 17:17:07;;;;;;;5.07;4.47;;;;;;;22.22;61.09;99816.02;255588;1104;114924;-75
2021/06/25 17:22:10;;;;;;;4.80;4.25;;;;;;;22.21;61.65;99827.19;255589;1104;115923;-74
2021/06/25 17:27:13;;;;;;;5.10;3.18;;;;;;;22.18;61.21;99834.84;254419;1104;116986;-72
2021/06/25 17:32:16;;;;;;;4.03;3.28;;;;;;;22.07;61.12;99840.81;254359;1100;119333;-72
2021/06/25 17:37:20;;;;;;;4.38;3.98;;;;;;;21.95;61.42;99826.97;254111;1104;116651;-72
2021/06/25 17:42:24;;;;;;;4.25;3.88;;;;;;;21.82;61.81;99823.98;254428;1104;116608;-72
2021/06/25 17:47:27;;;;;;;3.50;3.23;;;;;;;21.70;61.73;99826.46;254514;1099;116651;-72
2021/06/25 17:52:31;;;;;;;5.27;3.90;;;;;;;21.63;62.19;99828.78;254447;1104;115554;-72
2021/06/25 17:57:35;;;;;;;4.33;3.93;;;;;;;21.49;62.42;99823.38;255164;1104;115871;-72
2021/06/25 18:02:38;;;;;;;4.13;2.98;;;;;;;21.42;62.58;99828.41;254380;1104;116628;-72
2021/06/25 18:07:41;;;;;;;4.93;3.60;;;;;;;21.31;63.01;99840.59;257018;1103;116550;-72
2021/06/25 18:12:45;;;;;;;3.65;3.30;;;;;;;21.16;62.98;99849.80;254705;1099;116089;-73
2021/06/25 18:18:07;;;;;;;3.17;2.97;;;;;;;21.07;63.56;99859.76;254569;1104;116082;-72
2021/06/25 18:23:11;;;;;;;3.80;3.40;;;;;;;20.91;63.85;99874.69;254432;1104;115993;-72
2021/06/25 18:28:13;;;;;;;3.85;3.63;;;;;;;20.57;64.13;99875.02;254416;1104;116069;-71
2021/06/25 18:33:16;;;;;;;3.93;3.63;;;;;;;20.49;64.82;99883.82;254448;1104;116011;-72
2021/06/25 18:38:19;;;;;;;4.33;3.95;;;;;;;20.41;65.23;99896.16;255355;1104;116661;-72
2021/06/25 18:43:22;;;;;;;5.43;4.30;;;;;;;20.29;65.70;99900.38;254502;1104;115860;-72
2021/06/25 18:48:27;;;;;;;4.88;4.40;;;;;;;20.10;66.04;99908.52;254232;1104;115883;-71
2021/06/25 18:53:29;;;;;;;6.33;5.80;;;;;;;20.00;66.24;99908.66;255302;1104;115390;-72
2021/06/25 18:58:32;;;;;;;6.93;5.58;;;;;;;19.80;66.07;99925.99;254554;1104;115267;-71
2021/06/25 19:03:35;;;;;;;7.80;6.13;;;;;;;19.55;66.63;99923.62;254386;1104;115730;-72
2021/06/25 19:08:37;;;;;;;5.00;4.70;;;;;;;19.37;66.83;99931.34;254300;1104;114771;-72
2021/06/25 19:13:40;;;;;;;5.98;5.38;;;;;;;19.06;67.46;99941.67;254541;1104;115446;-72
2021/06/25 19:18:42;;;;;;;5.53;5.10;;;;;;;18.87;67.35;99951.59;255036;1104;215269;-71
2021/06/25 19:23:46;;;;;;;5.58;4.73;;;;;;;18.73;67.85;99953.33;254379;1104;115564;-72
2021/06/25 19:28:50;;;;;;;8.13;4.80;;;;;;;18.61;68.33;99953.71;255588;1104;203221;-71
2021/06/25 19:33:54;;;;;;;5.06;4.76;;;;;;;18.58;68.74;99954.24;254470;1096;115894;-71
2021/06/25 19:38:57;;;;;;;7.03;4.35;;;;;;;18.44;68.61;99953.25;255454;1100;116964;-71
2021/06/25 19:44:01;;;;;;;4.98;4.55;;;;;;;18.39;69.13;99948.70;256445;1104;115912;-72
2021/06/25 19:49:05;;;;;;;7.27;4.80;;;;;;;18.36;69.22;99941.16;254789;1104;115130;-72
2021/06/25 19:54:09;;;;;;;5.33;4.63;;;;;;;18.23;68.99;99939.11;256192;1104;115649;-72
2021/06/25 19:59:15;;;;;;;4.27;4.00;;;;;;;18.10;69.28;99932.43;254894;1104;116733;-72
2021/06/25 20:04:20;;;;;;;4.20;3.90;;;;;;;18.00;69.63;99927.12;254599;1104;116396;-71
2021/06/25 20:09:24;;;;;;;5.73;4.58;;;;;;;17.93;70.11;99920.41;255013;1104;115775;-72
2021/06/25 20:14:32;;;;;;;4.55;4.25;;;;;;;17.91;70.63;99911.79;255886;1104;116952;-72
2021/06/25 20:19:35;;;;;;;4.17;3.93;;;;;;;17.76;69.96;99909.97;254887;1104;116409;-71
2021/06/25 20:24:40;;;;;;;4.13;3.90;;;;;;;17.59;69.84;99912.19;257476;1104;115122;-72
2021/06/25 20:29:44;;;;;;;4.30;4.00;;;;;;;17.54;70.30;99913.02;254511;1100;115709;-71
2021/06/25 20:34:49;;;;;;;4.75;4.45;;;;;;;17.39;70.06;99911.20;254359;1104;115157;-71
2021/06/25 20:39:53;;;;;;;5.45;4.73;;;;;;;17.32;70.74;99912.56;254415;1104;114837;-71
2021/06/25 20:45:02;;;;;;;5.20;4.90;;;;;;;17.32;71.41;99899.91;255729;1103;118283;-71
2021/06/25 20:50:08;;;;;;;14.68;6.00;;;;;;;17.36;71.31;99898.27;255375;1104;115371;-71
2021/06/25 20:55:13;;;;;;;5.20;4.80;;;;;;;17.23;70.82;99896.16;254468;1104;115422;-71
2021/06/25 21:00:17;;;;;;;5.75;4.40;;;;;;;16.90;70.83;99902.97;254465;1098;115565;-71
2021/06/25 21:05:19;;;;;;;7.48;5.60;;;;;;;16.78;71.71;99908.66;254976;1104;115055;-71
2021/06/25 21:10:24;;;;;;;5.13;4.58;;;;;;;16.81;72.08;99918.86;254729;1103;115078;-71
2021/06/25 21:15:30;;;;;;;6.28;5.68;;;;;;;16.88;72.39;99920.47;254512;1104;115691;-71
2021/06/25 21:20:35;;;;;;;13.10;8.88;;;;;;;16.94;72.95;99917.50;254839;1099;115671;-71
2021/06/25 21:25:39;;;;;;;10.20;9.20;;;;;;;17.05;73.04;99919.11;254455;1104;115532;-71
2021/06/25 21:30:43;;;;;;;20.43;11.60;;;;;;;17.12;73.14;99926.91;254451;1103;114530;-71
2021/06/25 21:35:47;;;;;;;13.58;11.38;;;;;;;17.16;73.60;99931.45;254330;1104;115726;-71
2021/06/25 21:40:50;;;;;;;11.60;10.38;;;;;;;17.25;73.63;99930.91;255209;1104;117473;-71
2021/06/25 21:45:53;;;;;;;9.68;8.65;;;;;;;17.26;73.49;99932.52;255102;1104;115634;-71
2021/06/25 21:50:56;;;;;;;10.17;9.10;;;;;;;17.31;73.92;99924.42;254832;1103;114444;-71
2021/06/25 21:56:00;;;;;;;12.25;10.10;;;;;;;17.39;73.86;99915.78;254467;1104;115193;-71
2021/06/25 22:01:03;;;;;;;11.28;10.15;;;;;;;17.46;73.65;99932.44;255724;1104;115599;-72
2021/06/25 22:06:06;;;;;;;9.55;8.70;;;;;;;17.47;74.03;99932.17;254911;1096;115004;-71
2021/06/25 22:11:09;;;;;;;9.10;8.30;;;;;;;17.49;73.96;99923.81;257290;1103;114916;-72
2021/06/25 22:16:13;;;;;;;7.60;6.93;;;;;;;17.59;73.75;99936.45;257383;1104;115347;-72
2021/06/25 22:21:17;;;;;;;8.95;8.00;;;;;;;17.65;74.01;99949.67;255876;1104;115657;-71
2021/06/25 22:26:20;;;;;;;8.55;7.75;;;;;;;17.68;74.22;99949.13;257372;1104;115091;-72
2021/06/25 22:31:23;;;;;;;8.15;7.35;;;;;;;17.73;73.91;99954.47;255684;1103;120358;-71
2021/06/25 22:36:26;;;;;;;8.28;7.58;;;;;;;17.79;74.11;99958.76;254610;1104;115812;-71
2021/06/25 22:41:32;;;;;;;10.00;8.68;;;;;;;17.83;74.09;99961.71;254878;1104;115564;-71
2021/06/25 22:46:37;;;;;;;10.10;9.10;;;;;;;17.82;73.81;99931.24;254644;1104;117260;-71
2021/06/25 22:51:40;;;;;;;8.43;7.73;;;;;;;17.72;73.60;99946.69;254266;1099;115825;-71
2021/06/25 22:56:43;;;;;;;10.55;9.20;;;;;;;17.52;73.68;99955.61;254427;1104;114437;-72
2021/06/25 23:01:48;;;;;;;7.38;6.68;;;;;;;17.44;73.87;99961.55;254314;1104;115609;-71
2021/06/25 23:06:52;;;;;;;7.33;6.60;;;;;;;17.42;74.11;99969.13;254263;1104;114511;-71
2021/06/25 23:11:55;;;;;;;9.48;6.63;;;;;;;17.43;74.61;99966.13;254420;1104;115540;-71
2021/06/25 23:16:58;;;;;;;7.55;6.90;;;;;;;17.48;74.75;99957.23;254332;1104;115333;-71
2021/06/25 23:22:01;;;;;;;7.37;6.87;;;;;;;17.56;74.66;99948.59;254447;1104;115650;-72
2021/06/25 23:27:05;;;;;;;8.17;7.37;;;;;;;17.49;74.41;99958.84;254288;1104;116725;-71
2021/06/25 23:32:08;;;;;;;10.48;6.73;;;;;;;17.51;74.89;99968.27;254462;1104;115565;-71
2021/06/25 23:37:11;;;;;;;7.77;7.10;;;;;;;17.57;74.93;99962.88;254447;1104;115478;-71